Time;durP1;ratioP1;P1;durP2;ratioP2;P2;SDS_P1;SDS_P2;PMS_P1;PMS_P2;Temp;Humidity;BMP_temperature;BMP_pressure;BME280_temperature;BME280_humidity;BME280_pressure;Samples;Min_cycle;Max_cycle;Signal;HPM_P1;HPM_P2
2023/07/09 00:02:13;;;;;;;;;10.00;9.00;;;;;27.53;50.54;100936.22;5033756;28;45869;-81
2023/07/09 00:04:40;;;;;;;;;12.50;11.00;;;;;27.47;50.32;100945.94;5033520;28;45964;-82
2023/07/09 00:07:08;;;;;;;;;9.25;9.25;;;;;27.46;50.14;100943.44;5033475;28;45616;-82
2023/07/09 00:09:33;;;;;;;;;11.00;10.75;;;;;27.38;50.68;100947.19;5034441;28;45690;-82
2023/07/09 00:11:59;;;;;;;;;8.75;8.75;;;;;27.35;50.48;100946.78;5032363;28;47915;-82
2023/07/09 00:14:24;;;;;;;;;8.75;8.75;;;;;27.29;50.23;100934.16;5033901;28;45697;-82
2023/07/09 00:16:50;;;;;;;;;10.75;10.25;;;;;27.26;50.35;100943.47;5032661;28;45581;-82
2023/07/09 00:19:18;;;;;;;;;11.25;9.50;;;;;27.23;50.73;100954.66;5031382;28;45702;-82
2023/07/09 00:21:46;;;;;;;;;10.00;9.00;;;;;27.20;51.22;100948.88;5022134;28;47322;-82
2023/07/09 00:24:14;;;;;;;;;9.25;9.25;;;;;27.13;51.15;100948.88;5034250;28;45915;-83
2023/07/09 00:26:40;;;;;;;;;10.75;10.25;;;;;27.12;50.65;100952.59;5033664;28;45787;-82
2023/07/09 00:29:12;;;;;;;;;10.25;9.25;;;;;27.10;51.12;100957.34;5034066;28;45994;-82
2023/07/09 00:31:40;;;;;;;;;9.25;9.25;;;;;27.06;51.20;100948.88;5033494;28;45680;-82
2023/07/09 00:34:07;;;;;;;;;11.00;10.25;;;;;27.05;51.80;100954.47;5033218;28;46391;-83
2023/07/09 00:36:33;;;;;;;;;9.00;9.00;;;;;27.01;50.70;100939.78;5034004;28;45717;-82
2023/07/09 00:39:04;;;;;;;;;10.50;10.00;;;;;26.99;51.86;100952.63;5031918;28;46603;-82
2023/07/09 00:41:36;;;;;;;;;9.50;9.50;;;;;27.01;51.69;100956.75;5032576;28;46410;-82
2023/07/09 00:44:20;;;;;;;;;10.00;9.75;;;;;26.97;51.94;100960.06;5033529;28;46189;-82
2023/07/09 00:46:48;;;;;;;;;10.50;10.00;;;;;26.91;52.58;100960.91;5033221;28;45631;-82
2023/07/09 00:49:17;;;;;;;;;9.50;9.00;;;;;26.88;51.95;100958.63;5033865;28;45811;-81
2023/07/09 00:51:46;;;;;;;;;10.00;9.00;;;;;26.85;52.16;100967.06;5032727;28;45539;-82
2023/07/09 00:54:36;;;;;;;;;9.75;9.75;;;;;26.77;52.00;100961.91;5028169;28;45906;-81
2023/07/09 00:57:10;;;;;;;;;9.50;9.50;;;;;26.78;52.33;100958.16;5020923;28;45673;-82
2023/07/09 00:59:36;;;;;;;;;9.25;8.75;;;;;26.73;52.35;100974.91;5033715;28;45730;-81
2023/07/09 01:02:01;;;;;;;;;10.50;10.25;;;;;26.68;52.28;100970.16;5033907;28;47178;-82
2023/07/09 01:04:28;;;;;;;;;8.50;8.25;;;;;26.65;52.85;100965.22;5035030;28;45700;-81
2023/07/09 01:06:55;;;;;;;;;9.75;9.25;;;;;26.65;52.37;100978.66;5033909;28;45813;-81
2023/07/09 01:09:23;;;;;;;;;9.50;9.00;;;;;26.61;52.95;100977.38;5033210;28;45983;-81
2023/07/09 01:11:48;;;;;;;;;10.00;9.00;;;;;26.62;52.84;100976.34;5031723;28;45810;-81
2023/07/09 01:14:19;;;;;;;;;9.50;9.00;;;;;26.60;52.37;100986.50;5032794;28;46629;-82
2023/07/09 01:16:56;;;;;;;;;11.50;9.75;;;;;26.56;52.70;100977.16;5032905;28;45795;-82
2023/07/09 01:19:28;;;;;;;;;8.00;8.00;;;;;26.54;52.94;100981.94;5046299;28;45988;-82
2023/07/09 01:21:58;;;;;;;;;11.50;9.75;;;;;26.52;52.99;100981.31;5032448;28;46691;-82
2023/07/09 01:24:55;;;;;;;;;9.00;8.00;;;;;26.49;53.68;100976.34;5033029;28;46971;-82
2023/07/09 01:27:24;;;;;;;;;10.25;10.00;;;;;26.47;53.82;100978.41;5032703;28;45602;-82
2023/07/09 01:29:50;;;;;;;;;10.00;9.00;;;;;26.46;53.56;100984.81;5025075;28;45701;-82
2023/07/09 01:32:18;;;;;;;;;10.00;10.00;;;;;26.46;53.04;100978.59;5032217;28;45780;-83
2023/07/09 01:34:47;;;;;;;;;11.50;9.75;;;;;26.46;53.46;100992.03;5032606;28;46161;-82
2023/07/09 01:37:13;;;;;;;;;11.25;11.00;;;;;26.44;53.92;100986.06;5032545;28;46185;-82
2023/07/09 01:39:40;;;;;;;;;9.25;8.25;;;;;26.37;53.95;100983.34;5032491;28;45795;-82
2023/07/09 01:42:08;;;;;;;;;10.00;9.00;;;;;26.36;54.08;100995.13;5032092;28;45630;-82
2023/07/09 01:44:35;;;;;;;;;11.00;10.75;;;;;26.34;54.26;100997.19;5032566;28;46085;-82
2023/07/09 01:47:03;;;;;;;;;10.75;10.00;;;;;26.28;54.67;100989.94;5032514;28;45553;-82
2023/07/09 01:49:29;;;;;;;;;13.00;11.50;;;;;26.23;54.46;100992.41;5032575;28;45948;-83
2023/07/09 01:51:55;;;;;;;;;10.00;10.00;;;;;26.22;54.61;101002.31;5031795;28;46500;-81
2023/07/09 01:54:20;;;;;;;;;10.75;10.25;;;;;26.20;54.39;101014.25;5032307;28;45740;-82
2023/07/09 01:56:46;;;;;;;;;9.00;9.00;;;;;26.19;54.62;101010.72;5032137;28;45729;-81
2023/07/09 01:59:11;;;;;;;;;10.00;9.00;;;;;26.19;54.54;101004.53;5032334;28;45655;-81
2023/07/09 02:01:38;;;;;;;;;11.00;10.25;;;;;26.15;54.56;101006.81;5031211;28;46556;-81
2023/07/09 02:04:03;;;;;;;;;10.75;10.00;;;;;26.09;55.13;100999.53;5031203;28;46394;-82
2023/07/09 02:06:31;;;;;;;;;12.50;9.50;;;;;26.08;55.60;100997.88;5030571;28;45767;-82
2023/07/09 02:08:58;;;;;;;;;10.75;10.00;;;;;26.10;55.32;101009.25;5032478;28;45841;-82
2023/07/09 02:11:24;;;;;;;;;10.25;9.25;;;;;26.07;54.77;101001.63;5044428;28;47523;-82
2023/07/09 02:13:49;;;;;;;;;11.50;11.00;;;;;26.10;54.95;101006.56;5046234;28;46987;-82
2023/07/09 02:16:15;;;;;;;;;9.00;8.50;;;;;26.07;54.79;100992.72;5038731;28;46040;-82
2023/07/09 02:18:40;;;;;;;;;9.75;9.75;;;;;26.05;55.25;100992.09;5038285;28;45591;-82
2023/07/09 02:21:05;;;;;;;;;12.00;10.00;;;;;26.08;55.34;100995.19;5035393;28;48575;-81
2023/07/09 02:23:31;;;;;;;;;9.25;9.00;;;;;26.10;55.12;100998.53;5038642;28;45813;-82
2023/07/09 02:25:56;;;;;;;;;12.00;11.00;;;;;26.09;54.63;100994.16;5038945;28;45894;-81
2023/07/09 02:28:22;;;;;;;;;10.00;9.00;;;;;26.09;55.25;100998.72;5039100;28;45508;-82
2023/07/09 02:30:47;;;;;;;;;9.25;9.00;;;;;26.11;55.31;100993.97;5037986;28;46638;-81
2023/07/09 02:33:12;;;;;;;;;11.25;10.75;;;;;26.07;55.60;100990.88;5038747;28;46171;-81
2023/07/09 02:35:38;;;;;;;;;10.50;9.00;;;;;26.13;55.04;101016.06;5036619;28;45819;-82
2023/07/09 02:38:04;;;;;;;;;10.25;9.50;;;;;26.07;55.21;101006.16;5030492;28;45938;-81
2023/07/09 02:40:30;;;;;;;;;10.25;9.50;;;;;26.04;55.54;100999.31;5038069;28;45902;-81
2023/07/09 02:42:55;;;;;;;;;12.25;11.00;;;;;26.02;56.31;100998.69;5037227;28;47130;-81
2023/07/09 02:45:21;;;;;;;;;11.25;11.25;;;;;25.99;55.65;100999.09;5038567;28;46072;-80
2023/07/09 02:47:46;;;;;;;;;10.25;10.00;;;;;25.95;55.79;101000.53;5037009;28;46084;-83
2023/07/09 02:50:12;;;;;;;;;9.00;9.00;;;;;25.89;55.71;101006.69;5037926;28;46714;-80
2023/07/09 02:52:37;;;;;;;;;10.50;10.50;;;;;25.83;56.27;101004.78;5037581;28;45658;-81
2023/07/09 02:55:03;;;;;;;;;9.00;7.50;;;;;25.75;56.21;101005.78;5034230;28;45606;-81
2023/07/09 02:57:29;;;;;;;;;8.25;8.25;;;;;25.69;56.73;100998.53;5037142;28;45879;-81
2023/07/09 02:59:54;;;;;;;;;11.00;10.50;;;;;25.68;56.32;101018.34;5038638;28;46458;-81
2023/07/09 03:02:19;;;;;;;;;11.00;10.75;;;;;25.61;56.33;101003.22;5038032;28;46230;-81
2023/07/09 03:04:45;;;;;;;;;10.75;10.75;;;;;25.59;56.69;101010.66;5038137;28;45561;-83
2023/07/09 03:07:10;;;;;;;;;12.00;11.00;;;;;25.60;56.75;101013.13;5037003;28;45739;-81
2023/07/09 03:09:35;;;;;;;;;10.25;10.25;;;;;25.54;56.83;101018.41;5037945;28;45689;-81
2023/07/09 03:12:01;;;;;;;;;10.75;10.75;;;;;25.48;57.40;101017.34;5026769;28;47568;-83
2023/07/09 03:14:26;;;;;;;;;11.25;10.50;;;;;25.46;57.59;101025.59;5037022;28;45789;-83
2023/07/09 03:16:51;;;;;;;;;9.75;9.00;;;;;25.40;58.38;101018.34;5038443;28;46064;-83
2023/07/09 03:19:17;;;;;;;;;13.00;11.00;;;;;25.39;58.16;101019.34;5037676;28;45550;-83
2023/07/09 03:21:43;;;;;;;;;11.25;11.25;;;;;25.37;57.40;101020.59;5035912;28;48262;-83
2023/07/09 03:24:08;;;;;;;;;11.00;11.00;;;;;25.34;57.85;101031.69;5034009;28;45626;-82
2023/07/09 03:26:34;;;;;;;;;10.00;9.25;;;;;25.33;57.89;101025.50;5036498;28;45710;-79
2023/07/09 03:29:00;;;;;;;;;10.25;9.00;;;;;25.25;58.10;101022.97;5034473;28;46522;-83
2023/07/09 03:31:25;;;;;;;;;10.50;10.25;;;;;25.21;57.71;101018.19;5036236;28;46366;-79
2023/07/09 03:33:52;;;;;;;;;8.00;8.00;;;;;25.21;58.52;101023.56;5035282;28;46001;-82
2023/07/09 03:36:19;;;;;;;;;11.00;10.00;;;;;25.15;58.58;101022.47;5035245;28;45813;-83
2023/07/09 03:38:45;;;;;;;;;10.25;9.25;;;;;25.14;58.57;101020.81;5033060;28;45554;-81
2023/07/09 03:41:10;;;;;;;;;10.50;10.00;;;;;25.15;58.21;101032.38;5033710;28;46101;-83
2023/07/09 03:43:35;;;;;;;;;11.00;10.25;;;;;25.14;58.58;101036.91;5033665;28;45575;-83
2023/07/09 03:46:01;;;;;;;;;11.00;11.00;;;;;25.14;58.42;101033.41;5025541;28;45864;-83
2023/07/09 03:48:27;;;;;;;;;9.00;9.00;;;;;25.11;58.39;101025.72;5034454;28;47762;-83
2023/07/09 03:50:53;;;;;;;;;9.50;8.75;;;;;25.09;58.93;101020.56;5033898;28;46162;-83
2023/07/09 03:53:18;;;;;;;;;10.25;9.25;;;;;25.12;58.78;101024.72;5034471;28;45693;-83
2023/07/09 03:55:46;;;;;;;;;9.75;9.75;;;;;25.10;58.55;101018.72;5033957;28;45568;-81
2023/07/09 03:58:12;;;;;;;;;11.25;10.75;;;;;25.08;58.86;101025.09;5034432;28;46312;-81
2023/07/09 04:00:37;;;;;;;;;10.00;10.00;;;;;25.06;58.49;101024.47;5032975;28;46343;-81
2023/07/09 04:03:03;;;;;;;;;10.50;10.50;;;;;25.05;58.38;101022.78;5031458;28;45696;-82
2023/07/09 04:05:28;;;;;;;;;9.75;9.00;;;;;25.04;58.30;101023.00;5033201;28;45857;-82
2023/07/09 04:07:55;;;;;;;;;9.75;9.00;;;;;25.02;58.60;101019.69;5033795;28;46214;-82
2023/07/09 04:10:20;;;;;;;;;8.50;7.75;;;;;25.06;58.06;101020.94;5032416;28;47199;-81
2023/07/09 04:12:46;;;;;;;;;11.00;10.25;;;;;25.05;57.99;101030.84;5049120;28;46087;-82
2023/07/09 04:15:15;;;;;;;;;11.25;11.00;;;;;25.03;57.59;101024.84;5032822;28;45666;-82
2023/07/09 04:17:40;;;;;;;;;9.25;9.25;;;;;25.06;57.72;101031.66;5033586;28;46500;-81
2023/07/09 04:20:08;;;;;;;;;11.00;9.00;;;;;25.06;57.94;101042.41;5030919;28;47344;-81
2023/07/09 04:22:35;;;;;;;;;8.50;8.50;;;;;25.04;58.25;101031.88;5032153;28;45564;-82
2023/07/09 04:25:02;;;;;;;;;10.25;9.25;;;;;25.03;57.74;101030.22;5029556;28;45626;-81
2023/07/09 04:27:28;;;;;;;;;11.00;9.25;;;;;25.03;57.74;101029.38;5030230;28;45772;-82
2023/07/09 04:29:54;;;;;;;;;9.75;8.75;;;;;25.05;58.02;101046.09;5032843;28;45724;-82
2023/07/09 04:32:20;;;;;;;;;8.25;8.25;;;;;25.03;57.92;101034.75;5033515;28;45614;-82
2023/07/09 04:34:46;;;;;;;;;10.75;10.00;;;;;25.00;57.34;101040.47;5030463;28;45661;-81
2023/07/09 04:37:12;;;;;;;;;11.50;10.50;;;;;25.00;57.68;101035.13;5030777;28;45822;-82
2023/07/09 04:39:38;;;;;;;;;9.75;8.75;;;;;25.02;57.25;101041.97;5033719;28;45966;-82
2023/07/09 04:42:05;;;;;;;;;10.50;9.00;;;;;25.01;57.54;101036.78;5032036;28;45726;-82
2023/07/09 04:44:31;;;;;;;;;10.00;9.25;;;;;25.01;57.65;101034.09;5033702;28;45752;-81
2023/07/09 04:46:57;;;;;;;;;12.00;9.25;;;;;25.00;57.49;101029.75;5033505;28;45694;-81
2023/07/09 04:49:22;;;;;;;;;9.00;8.50;;;;;24.97;57.50;101028.31;5031921;28;47153;-81
2023/07/09 04:51:48;;;;;;;;;10.50;10.00;;;;;24.96;57.89;101021.28;5030189;28;45925;-82
2023/07/09 04:54:14;;;;;;;;;9.50;8.75;;;;;24.98;57.32;101015.72;5024691;28;45817;-82
2023/07/09 04:56:44;;;;;;;;;11.25;10.00;;;;;25.00;57.64;101013.66;5026483;28;46826;-82
2023/07/09 04:59:09;;;;;;;;;11.25;10.00;;;;;24.98;57.09;101013.88;5024970;28;46075;-81
2023/07/09 05:01:35;;;;;;;;;11.50;10.00;;;;;24.99;57.42;101004.00;5032454;28;45681;-81
2023/07/09 05:04:00;;;;;;;;;9.50;8.75;;;;;25.02;57.31;101000.91;5032491;28;45538;-82
2023/07/09 05:06:25;;;;;;;;;12.50;9.75;;;;;25.04;57.25;101002.38;5032889;28;45600;-81
2023/07/09 05:08:51;;;;;;;;;10.00;10.00;;;;;25.06;56.94;101012.91;5031024;28;45663;-81
2023/07/09 05:11:16;;;;;;;;;8.00;8.00;;;;;25.05;56.98;101011.22;5030679;28;45842;-81
2023/07/09 05:13:42;;;;;;;;;8.25;7.25;;;;;25.11;56.98;101023.88;5048773;28;45753;-81
2023/07/09 05:16:07;;;;;;;;;11.00;9.00;;;;;25.05;57.00;101013.91;5033036;28;45953;-81
2023/07/09 05:18:32;;;;;;;;;8.25;8.25;;;;;25.13;56.41;101008.44;5028646;28;47202;-80
2023/07/09 05:20:58;;;;;;;;;10.00;9.50;;;;;25.07;56.54;101001.97;5032778;28;46086;-81
2023/07/09 05:23:25;;;;;;;;;11.75;10.75;;;;;25.14;56.75;100998.53;5033080;28;45960;-81
2023/07/09 05:25:56;;;;;;;;;9.75;9.50;;;;;25.14;55.99;101003.91;5029605;28;48657;-81
2023/07/09 05:28:21;;;;;;;;;10.25;10.00;;;;;25.19;56.35;101021.06;5022961;28;47036;-80
2023/07/09 05:30:47;;;;;;;;;8.50;8.25;;;;;25.18;56.10;101027.44;5030337;28;45835;-81
2023/07/09 05:33:12;;;;;;;;;9.25;7.25;;;;;25.16;56.08;101020.59;5031651;28;45739;-84
2023/07/09 05:35:37;;;;;;;;;8.00;8.00;;;;;25.19;55.91;101022.91;5032513;28;45926;-84
2023/07/09 05:38:03;;;;;;;;;11.75;10.00;;;;;25.22;55.71;101019.84;5032456;28;45761;-84
2023/07/09 05:40:28;;;;;;;;;10.00;9.00;;;;;25.24;55.45;101032.03;5032765;28;46005;-79
2023/07/09 05:42:53;;;;;;;;;8.00;7.50;;;;;25.24;55.55;101026.69;5032953;28;45686;-85
2023/07/09 05:45:19;;;;;;;;;8.75;8.75;;;;;25.25;55.31;101025.66;5029341;28;47694;-81
2023/07/09 05:47:44;;;;;;;;;9.50;9.00;;;;;25.29;55.45;101026.09;5032706;28;45753;-84
2023/07/09 05:50:10;;;;;;;;;9.75;9.00;;;;;25.33;54.98;101022.81;5029286;28;45725;-82
2023/07/09 05:52:35;;;;;;;;;9.00;8.00;;;;;25.33;54.55;101009.41;5029119;28;45824;-82
2023/07/09 05:55:00;;;;;;;;;8.75;8.00;;;;;25.36;54.58;101002.84;5034044;28;45772;-82
2023/07/09 05:57:26;;;;;;;;;8.00;8.00;;;;;25.33;54.81;101012.09;5036380;28;46816;-86
2023/07/09 05:59:51;;;;;;;;;8.00;7.00;;;;;25.38;54.91;101023.06;5030535;28;45676;-79
2023/07/09 06:02:19;;;;;;;;;10.00;9.00;;;;;25.39;54.36;101016.69;5030307;28;45691;-81
2023/07/09 06:04:45;;;;;;;;;8.25;8.00;;;;;25.40;53.88;101021.03;5032120;28;45616;-84
2023/07/09 06:07:13;;;;;;;;;8.75;8.75;;;;;25.41;54.33;101021.84;5033067;28;45682;-80
2023/07/09 06:09:39;;;;;;;;;8.75;7.00;;;;;25.42;53.16;101019.00;5030619;28;46544;-83
2023/07/09 06:12:05;;;;;;;;;8.00;7.75;;;;;25.40;53.68;101018.34;5034601;28;45880;-86
2023/07/09 06:14:31;;;;;;;;;9.75;7.25;;;;;25.37;53.39;101005.28;5036398;28;45623;-84
2023/07/09 06:16:57;;;;;;;;;8.00;8.00;;;;;25.43;53.41;101017.09;5033689;28;46089;-79
2023/07/09 06:19:22;;;;;;;;;9.00;8.00;;;;;25.45;53.03;101023.13;5032254;28;45740;-85
2023/07/09 06:21:48;;;;;;;;;9.50;8.75;;;;;25.47;53.16;101043.38;5036029;28;45830;-81
2023/07/09 06:24:13;;;;;;;;;6.50;6.50;;;;;25.48;52.94;101038.81;5034138;28;45571;-88
2023/07/09 06:26:38;;;;;;;;;10.50;8.00;;;;;25.52;53.09;101042.78;5052939;28;47453;-82
2023/07/09 06:29:04;;;;;;;;;7.00;6.50;;;;;25.54;52.28;101047.94;5035264;28;45538;-81
2023/07/09 06:31:29;;;;;;;;;9.00;8.50;;;;;25.58;52.42;101055.47;5034318;28;45612;-84
2023/07/09 06:33:55;;;;;;;;;8.25;7.75;;;;;25.60;52.77;101063.28;5031309;28;45543;-80
2023/07/09 06:36:21;;;;;;;;;6.00;6.00;;;;;25.59;52.53;101065.13;5022634;28;45676;-79
2023/07/09 06:38:46;;;;;;;;;7.00;6.25;;;;;25.60;52.30;101064.13;5036410;28;45599;-84
2023/07/09 06:41:13;;;;;;;;;6.75;6.25;;;;;25.61;52.15;101063.09;5033111;28;45515;-80
2023/07/09 06:43:39;;;;;;;;;8.25;6.75;;;;;25.61;52.26;101057.72;5032996;28;46996;-82
2023/07/09 06:46:06;;;;;;;;;7.00;5.25;;;;;25.62;52.36;101067.44;5035633;28;45755;-82
2023/07/09 06:48:32;;;;;;;;;7.25;6.00;;;;;25.63;52.05;101074.47;5031700;28;45720;-82
2023/07/09 06:50:59;;;;;;;;;7.25;7.00;;;;;25.63;52.00;101077.16;5034083;28;45595;-83
2023/07/09 06:53:25;;;;;;;;;4.00;3.00;;;;;25.62;51.91;101080.03;5035476;28;45892;-82
2023/07/09 06:55:54;;;;;;;;;5.75;5.75;;;;;25.59;51.69;101083.94;5030463;28;46474;-85
2023/07/09 06:58:21;;;;;;;;;7.75;7.00;;;;;25.62;51.76;101082.72;5036503;28;45797;-83
2023/07/09 07:00:48;;;;;;;;;7.00;6.00;;;;;25.64;51.86;101081.50;5037668;28;45701;-85
2023/07/09 07:03:14;;;;;;;;;6.00;6.00;;;;;25.62;51.86;101075.50;5036907;28;46529;-83
2023/07/09 07:05:49;;;;;;;;;7.00;6.25;;;;;25.63;51.80;101066.44;5036127;28;45598;-86
2023/07/09 07:08:16;;;;;;;;;6.00;5.75;;;;;25.64;51.92;101076.13;5031002;28;45800;-83
2023/07/09 07:10:42;;;;;;;;;5.25;5.25;;;;;25.67;51.58;101075.75;5029920;28;45604;-81
2023/07/09 07:13:08;;;;;;;;;7.00;7.00;;;;;25.67;51.88;101067.69;5034303;28;46382;-80
2023/07/09 07:15:33;;;;;;;;;6.00;5.75;;;;;25.71;51.60;101055.53;5034278;28;47790;-81
2023/07/09 07:17:58;;;;;;;;;7.00;7.00;;;;;25.74;51.73;101067.75;5033243;28;45766;-80
2023/07/09 07:20:24;;;;;;;;;7.00;7.00;;;;;25.77;52.22;101072.72;5034365;28;45649;-81
2023/07/09 07:22:49;;;;;;;;;9.00;7.75;;;;;25.80;52.04;101077.69;5034488;28;46404;-80
2023/07/09 07:25:15;;;;;;;;;10.50;9.50;;;;;25.83;52.52;101066.56;5029209;28;45647;-79
2023/07/09 07:27:40;;;;;;;;;9.50;8.25;;;;;25.85;52.16;101065.34;5033960;28;45706;-79
2023/07/09 07:30:10;;;;;;;;;7.25;7.25;;;;;25.86;51.99;101079.56;5034625;28;45993;-81
2023/07/09 07:32:37;;;;;;;;;7.00;7.00;;;;;25.88;52.07;101093.63;5034594;28;46515;-79
2023/07/09 07:35:03;;;;;;;;;8.25;8.00;;;;;25.88;52.29;101096.31;5033994;28;45716;-80
2023/07/09 07:37:28;;;;;;;;;7.00;7.00;;;;;25.86;52.05;101093.00;5038132;28;45873;-80
2023/07/09 07:39:54;;;;;;;;;9.00;9.00;;;;;25.91;51.95;101099.44;5034479;28;45547;-81
2023/07/09 07:42:19;;;;;;;;;10.50;8.75;;;;;25.94;52.37;101114.34;5028303;28;45649;-80
2023/07/09 07:44:45;;;;;;;;;8.75;8.00;;;;;25.92;52.46;101111.84;5027063;28;45689;-80
2023/07/09 07:47:11;;;;;;;;;9.50;8.00;;;;;25.92;52.68;101119.06;5034326;28;45626;-80
2023/07/09 07:49:37;;;;;;;;;7.25;6.00;;;;;25.87;52.82;101133.09;5033927;28;45983;-82
2023/07/09 07:52:03;;;;;;;;;9.00;8.25;;;;;25.86;52.91;101160.97;5033221;28;46505;-83
2023/07/09 07:54:31;;;;;;;;;9.75;8.00;;;;;25.82;53.10;101186.53;5035943;28;46105;-81
2023/07/09 07:56:57;;;;;;;;;8.50;8.00;;;;;25.78;53.06;101187.13;5034145;28;45615;-80
2023/07/09 07:59:22;;;;;;;;;9.50;9.50;;;;;25.75;53.26;101177.59;5026501;28;45996;-82
2023/07/09 08:01:48;;;;;;;;;8.75;6.75;;;;;25.69;53.23;101172.19;5032916;28;46316;-80
2023/07/09 08:04:14;;;;;;;;;10.00;9.00;;;;;25.67;53.31;101176.91;5030167;28;45693;-80
2023/07/09 08:06:39;;;;;;;;;9.00;8.00;;;;;25.66;53.39;101170.72;5033270;28;45779;-81
2023/07/09 08:09:05;;;;;;;;;6.50;6.50;;;;;25.63;53.72;101152.31;5033055;28;45765;-75
2023/07/09 08:11:32;;;;;;;;;8.75;7.75;;;;;25.60;53.14;101144.66;5036243;28;45780;-79
2023/07/09 08:13:57;;;;;;;;;8.00;8.00;;;;;25.57;53.33;101136.16;5034620;28;46143;-83
2023/07/09 08:16:23;;;;;;;;;7.75;7.75;;;;;25.52;53.56;101142.09;5034708;28;45609;-80
2023/07/09 08:18:48;;;;;;;;;7.00;7.00;;;;;25.50;53.68;101144.94;5035486;28;45638;-79
2023/07/09 08:21:13;;;;;;;;;10.00;9.00;;;;;25.46;53.42;101134.81;5036015;28;45603;-82
2023/07/09 08:23:39;;;;;;;;;8.00;8.00;;;;;25.42;53.23;101137.06;5035333;28;45792;-83
2023/07/09 08:26:04;;;;;;;;;7.50;7.50;;;;;25.43;53.08;101143.22;5035264;28;45607;-80
2023/07/09 08:28:30;;;;;;;;;8.00;8.00;;;;;25.44;53.71;101139.50;5034868;28;45718;-77
2023/07/09 08:30:56;;;;;;;;;9.25;9.00;;;;;25.41;53.49;101123.81;5033994;28;45910;-82
2023/07/09 08:33:23;;;;;;;;;9.00;8.00;;;;;25.34;53.75;101131.81;5031781;28;46069;-84
2023/07/09 08:35:50;;;;;;;;;11.50;9.00;;;;;25.36;53.84;101135.13;5032199;28;46150;-79
2023/07/09 08:38:15;;;;;;;;;8.25;7.75;;;;;25.34;54.02;101134.47;5034875;28;45753;-84
2023/07/09 08:40:42;;;;;;;;;7.25;7.00;;;;;25.32;53.99;101160.66;5032226;28;46595;-85
2023/07/09 08:43:32;;;;;;;;;8.00;8.00;;;;;25.31;54.70;101175.13;5035314;28;45736;-77
2023/07/09 08:46:06;;;;;;;;;8.25;8.00;;;;;25.29;55.02;101170.97;5035788;28;45649;-79
2023/07/09 08:48:36;;;;;;;;;11.25;9.75;;;;;25.27;54.95;101157.72;5038299;28;45528;-83
2023/07/09 08:51:19;;;;;;;;;9.25;8.25;;;;;25.33;54.93;101181.09;5034133;28;46634;-81
2023/07/09 08:53:57;;;;;;;;;9.25;7.50;;;;;25.35;54.89;101176.41;5035146;28;46109;-80
2023/07/09 08:56:24;;;;;;;;;9.50;8.75;;;;;25.35;55.03;101181.75;5031736;28;45666;-79
2023/07/09 08:58:52;;;;;;;;;8.25;7.00;;;;;25.32;54.77;101183.97;5037171;28;45932;-79
2023/07/09 09:01:22;;;;;;;;;9.50;9.50;;;;;25.36;55.07;101196.00;5037559;28;46545;-79
2023/07/09 09:03:59;;;;;;;;;10.25;9.25;;;;;25.41;54.61;101207.84;5036731;28;46313;-79
2023/07/09 09:06:30;;;;;;;;;8.50;8.00;;;;;25.44;54.95;101209.28;5031895;28;45705;-80
2023/07/09 09:09:26;;;;;;;;;9.25;9.00;;;;;25.49;54.27;101201.50;5032666;28;45899;-83
2023/07/09 09:12:03;;;;;;;;;9.00;9.00;;;;;25.55;54.35;101183.78;5030956;28;47389;-81
2023/07/09 09:14:42;;;;;;;;;8.50;8.50;;;;;25.58;54.15;101157.44;5033197;28;45932;-84
2023/07/09 09:17:19;;;;;;;;;10.00;9.00;;;;;25.62;54.38;101158.72;5035481;28;45565;-75
2023/07/09 09:20:04;;;;;;;;;9.50;9.00;;;;;25.65;53.92;101166.38;5037551;28;45808;-84
2023/07/09 09:22:41;;;;;;;;;10.75;9.50;;;;;25.68;54.10;101174.06;5029882;28;46346;-80
2023/07/09 09:25:12;;;;;;;;;9.00;8.50;;;;;25.71;53.83;101168.28;5033251;28;48447;-80
2023/07/09 09:27:38;;;;;;;;;6.00;5.25;;;;;25.74;53.38;101175.97;5035210;28;45705;-78
2023/07/09 09:30:05;;;;;;;;;7.25;7.25;;;;;25.74;53.24;101170.59;5034349;28;45598;-79
2023/07/09 09:32:46;;;;;;;;;7.00;7.00;;;;;25.74;53.39;101185.88;5031493;28;46475;-79
2023/07/09 09:35:17;;;;;;;;;8.50;8.00;;;;;25.74;53.01;101181.34;5032774;28;45891;-79
2023/07/09 09:37:57;;;;;;;;;9.00;9.00;;;;;25.76;52.83;101183.81;5032616;28;45588;-78
2023/07/09 09:40:24;;;;;;;;;7.75;7.00;;;;;25.76;53.05;101195.38;5029008;28;45798;-79
2023/07/09 09:42:53;;;;;;;;;11.25;10.25;;;;;25.76;52.98;101203.44;5024302;28;46408;-79
2023/07/09 09:45:21;;;;;;;;;8.75;7.75;;;;;25.74;52.55;101210.03;5033290;28;46232;-80
2023/07/09 09:47:47;;;;;;;;;8.75;8.75;;;;;25.74;53.12;101212.72;5032671;28;45660;-78
2023/07/09 09:50:18;;;;;;;;;10.00;9.00;;;;;25.68;53.26;101206.25;5031527;28;45733;-78
2023/07/09 09:52:45;;;;;;;;;12.00;10.00;;;;;25.71;53.57;101221.13;5032500;28;45587;-79
2023/07/09 09:55:16;;;;;;;;;12.00;10.25;;;;;25.68;53.68;101214.31;5031059;28;46973;-80
2023/07/09 09:57:48;;;;;;;;;10.75;10.25;;;;;25.68;54.56;101222.38;5031377;28;45718;-79
2023/07/09 10:00:16;;;;;;;;;10.25;8.50;;;;;25.64;55.18;101215.69;5031828;28;45675;-80
2023/07/09 10:02:42;;;;;;;;;10.00;10.00;;;;;25.60;54.92;101210.91;5031700;28;45629;-79
2023/07/09 10:05:21;;;;;;;;;11.25;10.25;;;;;25.57;55.00;101220.19;5031269;28;46250;-78
2023/07/09 10:08:09;;;;;;;;;9.00;8.50;;;;;25.56;54.61;101223.06;5047044;28;45694;-80
2023/07/09 10:10:35;;;;;;;;;9.00;9.00;;;;;25.57;54.79;101212.16;5031807;28;45855;-81
2023/07/09 10:13:23;;;;;;;;;11.75;11.75;;;;;25.59;54.93;101201.22;5034006;28;46158;-86
2023/07/09 10:16:00;;;;;;;;;11.25;10.25;;;;;25.61;55.68;101173.16;5033123;28;45721;-85
2023/07/09 10:18:40;;;;;;;;;10.25;9.75;;;;;25.65;55.52;101144.88;5033796;28;45844;-82
2023/07/09 10:21:14;;;;;;;;;9.50;9.25;;;;;25.67;56.39;101123.22;5031614;28;46953;-79
2023/07/09 10:24:01;;;;;;;;;9.50;9.50;;;;;25.67;55.75;101139.34;5033894;28;45770;-80
2023/07/09 10:26:32;;;;;;;;;11.75;10.00;;;;;25.69;56.06;101132.75;5032876;28;45980;-80
2023/07/09 10:29:20;;;;;;;;;11.25;10.00;;;;;25.72;56.04;101148.47;5032533;28;45773;-83
2023/07/09 10:31:55;;;;;;;;;10.75;10.00;;;;;25.77;56.15;101147.88;5030819;28;45827;-77
2023/07/09 10:34:46;;;;;;;;;11.75;11.00;;;;;25.80;55.88;101167.09;5029652;28;46903;-85
2023/07/09 10:37:17;;;;;;;;;13.00;11.75;;;;;25.82;55.62;101164.22;5034507;28;46380;-84
2023/07/09 10:39:57;;;;;;;;;10.25;9.00;;;;;25.85;55.48;101174.59;5036316;28;45824;-89
2023/07/09 10:42:22;;;;;;;;;11.50;11.00;;;;;25.87;55.86;101186.78;5023566;28;45814;-79
2023/07/09 10:44:56;;;;;;;;;12.50;12.00;;;;;25.90;55.91;101197.16;5035867;28;46387;-85
2023/07/09 10:47:35;;;;;;;;;11.25;11.00;;;;;25.92;55.61;101203.16;5034827;28;46322;-77
2023/07/09 10:50:05;;;;;;;;;12.25;11.25;;;;;25.96;55.58;101197.41;5032088;28;45836;-85
2023/07/09 10:52:37;;;;;;;;;11.75;11.00;;;;;25.98;55.47;101196.16;5036637;28;45751;-79
2023/07/09 10:55:16;;;;;;;;;10.25;10.00;;;;;26.01;54.96;101194.97;5034883;28;46871;-79
2023/07/09 10:58:02;;;;;;;;;12.50;11.00;;;;;26.01;54.94;101198.47;5034464;28;45959;-79
2023/07/09 11:00:46;;;;;;;;;13.00;12.00;;;;;26.00;55.45;101180.69;5030772;28;45713;-89
2023/07/09 11:03:12;;;;;;;;;11.00;10.00;;;;;25.99;55.62;101184.41;5036254;28;45736;-79
2023/07/09 11:05:39;;;;;;;;;14.00;13.25;;;;;25.94;56.00;101170.75;5037057;28;45627;-79
2023/07/09 11:08:14;;;;;;;;;14.25;13.00;;;;;25.95;55.64;101188.50;5030121;28;45666;-78
2023/07/09 11:10:50;;;;;;;;;13.00;12.50;;;;;25.97;55.32;101166.81;5035098;28;46582;-80
2023/07/09 11:13:35;;;;;;;;;14.00;14.00;;;;;26.02;55.84;101165.19;5027719;28;45692;-82
2023/07/09 11:16:04;;;;;;;;;14.00;12.00;;;;;26.04;55.83;101156.94;5034961;28;46443;-81
2023/07/09 11:18:33;;;;;;;;;13.25;12.25;;;;;26.04;55.65;101148.91;5034668;28;45590;-86
2023/07/09 11:21:16;;;;;;;;;14.00;12.50;;;;;26.09;55.46;101146.44;5033927;28;45750;-79
2023/07/09 11:24:02;;;;;;;;;14.75;13.00;;;;;26.14;55.80;101144.00;5033414;28;45732;-81
2023/07/09 11:26:30;;;;;;;;;18.50;16.25;;;;;26.18;55.37;101132.66;5025439;28;48221;-80